createdAt,value
2018-03-19T00:00:52.724Z,61.60
2018-03-19T00:02:31.561Z,61.70
2018-03-19T00:04:10.748Z,62.00
2018-03-19T00:05:49.753Z,63.60
2018-03-19T00:07:28.417Z,64.80
2018-03-19T00:09:07.321Z,64.30
2018-03-19T00:10:45.653Z,63.50
2018-03-19T00:12:24.525Z,63.90
2018-03-19T00:14:03.645Z,63.60
2018-03-19T00:15:43.731Z,63.90
2018-03-19T00:17:22.548Z,63.90
2018-03-19T00:19:01.592Z,63.50
2018-03-19T00:20:40.687Z,63.40
2018-03-19T00:22:20.922Z,62.80
2018-03-19T00:24:01.655Z,62.80
2018-03-19T00:25:40.778Z,62.80
2018-03-19T00:27:19.979Z,62.90
2018-03-19T00:28:58.778Z,61.70
2018-03-19T00:30:37.554Z,62.40
2018-03-19T00:32:17.305Z,62.30
2018-03-19T00:33:55.496Z,63.10
2018-03-19T00:35:33.545Z,62.50
2018-03-19T00:37:12.885Z,61.90
2018-03-19T00:38:51.509Z,61.90
2018-03-19T00:40:30.017Z,62.50
2018-03-19T00:42:07.793Z,63.00
2018-03-19T00:43:46.953Z,62.80
2018-03-19T00:45:26.648Z,63.20
2018-03-19T00:47:06.066Z,63.40
2018-03-19T00:48:44.927Z,62.80
2018-03-19T00:50:23.067Z,61.90
2018-03-19T00:52:02.068Z,62.20
2018-03-19T00:53:42.082Z,61.40
2018-03-19T00:55:20.520Z,61.40
2018-03-19T00:57:00.297Z,62.90
2018-03-19T00:58:39.329Z,63.00
2018-03-19T01:00:20.798Z,63.00
2018-03-19T01:01:59.787Z,62.80
2018-03-19T01:03:39.035Z,61.10
2018-03-19T01:05:18.304Z,61.10
2018-03-19T01:06:56.776Z,60.10
2018-03-19T01:08:35.417Z,59.70
2018-03-19T01:10:14.470Z,59.80
2018-03-19T01:11:53.807Z,60.00
2018-03-19T01:13:33.075Z,59.80
2018-03-19T01:15:13.063Z,61.30
2018-03-19T01:16:51.875Z,62.90
2018-03-19T01:18:30.296Z,62.60
2018-03-19T01:20:10.238Z,63.50
2018-03-19T01:21:49.168Z,64.00
2018-03-19T01:23:27.651Z,64.90
2018-03-19T01:25:07.033Z,66.60
2018-03-19T01:26:44.757Z,64.60
2018-03-19T01:28:22.968Z,63.90
2018-03-19T01:30:04.616Z,63.10
2018-03-19T01:31:44.055Z,65.10
2018-03-19T01:33:23.138Z,64.80
2018-03-19T01:35:02.211Z,63.50
2018-03-19T01:36:41.825Z,64.10
2018-03-19T01:38:21.147Z,64.90
2018-03-19T01:39:59.462Z,64.30
2018-03-19T01:41:38.598Z,63.90
2018-03-19T01:43:17.536Z,64.50
2018-03-19T01:44:56.871Z,65.30
2018-03-19T01:46:37.135Z,64.90
2018-03-19T01:48:16.013Z,64.70
2018-03-19T01:49:56.347Z,65.40
2018-03-19T01:51:35.953Z,66.10
2018-03-19T01:53:16.213Z,65.70
2018-03-19T01:54:54.643Z,65.70
2018-03-19T01:56:32.887Z,65.10
2018-03-19T01:58:12.263Z,65.20
2018-03-19T01:59:50.568Z,65.70
2018-03-19T02:01:30.365Z,65.60
2018-03-19T02:03:09.188Z,66.00
2018-03-19T02:04:48.910Z,67.20
2018-03-19T02:06:27.488Z,67.20
2018-03-19T02:08:06.346Z,66.80
2018-03-19T02:09:45.352Z,65.00
2018-03-19T02:11:25.114Z,64.60
2018-03-19T02:13:03.950Z,64.70
2018-03-19T02:14:42.737Z,65.10
2018-03-19T02:16:21.872Z,66.10
2018-03-19T02:18:00.981Z,65.80
2018-03-19T02:19:40.614Z,66.40
2018-03-19T02:21:19.780Z,65.90
2018-03-19T02:22:58.068Z,65.80
2018-03-19T02:24:36.634Z,66.60
2018-03-19T02:26:14.539Z,66.40
2018-03-19T02:27:54.338Z,64.20
2018-03-19T02:29:32.781Z,64.20
2018-03-19T02:31:12.207Z,64.10
2018-03-19T02:32:49.824Z,62.70
2018-03-19T02:34:28.380Z,64.40
2018-03-19T02:36:06.671Z,65.60
2018-03-19T02:37:46.250Z,65.20
2018-03-19T02:39:25.076Z,64.00
2018-03-19T02:41:03.954Z,64.30
2018-03-19T02:42:42.285Z,64.30
2018-03-19T02:44:21.581Z,66.00
2018-03-19T02:46:00.061Z,66.00
2018-03-19T02:47:38.109Z,66.50
2018-03-19T02:49:18.982Z,65.10
2018-03-19T02:50:57.688Z,65.10
2018-03-19T02:52:35.872Z,65.40
2018-03-19T02:54:14.409Z,67.20
2018-03-19T02:55:52.806Z,67.50
2018-03-19T02:57:30.740Z,67.70
2018-03-19T02:59:08.593Z,68.00
2018-03-19T03:00:47.593Z,67.70
2018-03-19T03:02:26.982Z,67.40
2018-03-19T03:04:04.477Z,68.10
2018-03-19T03:05:42.711Z,67.60
2018-03-19T03:07:20.719Z,66.80
2018-03-19T03:09:06.750Z,68.70
2018-03-19T03:10:45.362Z,68.70
2018-03-19T03:12:23.503Z,68.60
2018-03-19T03:14:02.405Z,69.20
2018-03-19T03:15:41.194Z,68.70
2018-03-19T03:17:19.573Z,69.10
2018-03-19T03:18:58.498Z,67.80
2018-03-19T03:20:36.754Z,67.80
2018-03-19T03:22:15.607Z,67.60
2018-03-19T03:23:53.740Z,68.50
2018-03-19T03:25:32.335Z,67.80
2018-03-19T03:27:10.857Z,68.30
2018-03-19T03:28:53.253Z,69.10
2018-03-19T03:30:31.515Z,69.30
2018-03-19T03:32:10.464Z,69.60
2018-03-19T03:33:48.461Z,70.20
2018-03-19T03:35:26.414Z,70.30
2018-03-19T03:37:03.858Z,70.10
2018-03-19T03:38:43.144Z,70.10
2018-03-19T03:40:21.266Z,70.10
2018-03-19T03:42:00.304Z,70.60
2018-03-19T03:43:37.894Z,70.10
2018-03-19T03:45:16.414Z,69.80
2018-03-19T03:46:54.583Z,70.30
2018-03-19T03:48:33.508Z,70.90
2018-03-19T03:50:12.349Z,71.50
2018-03-19T03:51:50.225Z,71.60
2018-03-19T03:53:28.506Z,70.60
2018-03-19T03:55:07.305Z,70.50
2018-03-19T03:56:45.463Z,70.50
2018-03-19T03:58:23.209Z,69.90
2018-03-19T04:00:01.027Z,70.40
2018-03-19T04:01:40.974Z,71.40
2018-03-19T04:03:18.884Z,71.40
2018-03-19T04:04:56.801Z,72.40
2018-03-19T04:06:36.081Z,72.40
2018-03-19T04:08:14.451Z,72.50
2018-03-19T04:09:52.159Z,73.10
2018-03-19T04:11:30.258Z,72.60
2018-03-19T04:13:07.570Z,71.90
2018-03-19T04:14:44.982Z,71.20
2018-03-19T04:16:22.477Z,71.10
2018-03-19T04:18:01.038Z,70.70
2018-03-19T04:19:39.960Z,70.70
2018-03-19T04:21:17.583Z,71.80
2018-03-19T04:22:55.801Z,71.80
2018-03-19T04:24:34.577Z,71.90
2018-03-19T04:26:13.414Z,72.80
2018-03-19T04:27:51.448Z,73.20
2018-03-19T04:29:29.362Z,73.00
2018-03-19T04:31:07.724Z,74.00
2018-03-19T04:32:45.957Z,74.40
2018-03-19T04:34:23.931Z,74.00
2018-03-19T04:36:01.438Z,73.50
2018-03-19T04:37:40.029Z,73.60
2018-03-19T04:39:18.648Z,73.10
2018-03-19T04:40:57.431Z,72.40
2018-03-19T04:42:36.291Z,74.10
2018-03-19T04:44:14.068Z,74.10
2018-03-19T04:45:51.895Z,74.90
2018-03-19T04:47:29.683Z,74.90
2018-03-19T04:49:07.899Z,75.00
2018-03-19T04:50:46.549Z,74.30
2018-03-19T04:52:24.630Z,74.00
2018-03-19T04:54:02.865Z,74.00
2018-03-19T04:55:41.656Z,75.20
2018-03-19T04:57:19.740Z,75.50
2018-03-19T04:58:57.539Z,75.70
2018-03-19T05:00:37.395Z,76.10
2018-03-19T05:02:15.303Z,75.40
2018-03-19T05:03:53.970Z,74.10
2018-03-19T05:05:32.552Z,74.80
2018-03-19T05:07:10.795Z,74.90
2018-03-19T05:08:49.159Z,74.70
2018-03-19T05:10:28.090Z,74.70
2018-03-19T05:12:06.883Z,75.30
2018-03-19T05:13:45.067Z,76.00
2018-03-19T05:15:22.945Z,76.60
2018-03-19T05:17:00.893Z,76.60
2018-03-19T05:18:38.586Z,76.80
2018-03-19T05:20:16.298Z,76.60
2018-03-19T05:21:54.314Z,76.70
2018-03-19T05:23:32.406Z,77.00
2018-03-19T05:25:10.095Z,77.50
2018-03-19T05:26:47.824Z,77.40
2018-03-19T05:28:26.691Z,77.20
2018-03-19T05:30:06.655Z,77.30
2018-03-19T05:31:45.011Z,77.60
2018-03-19T05:33:23.302Z,77.00
2018-03-19T05:35:00.839Z,77.30
2018-03-19T05:36:38.899Z,76.50
2018-03-19T05:38:17.614Z,77.00
2018-03-19T05:39:55.972Z,77.40
2018-03-19T05:41:33.932Z,76.00
2018-03-19T05:43:12.179Z,74.40
2018-03-19T05:44:51.251Z,74.50
2018-03-19T05:46:29.399Z,74.50
2018-03-19T05:48:07.684Z,75.90
2018-03-19T05:49:47.699Z,75.10
2018-03-19T05:51:30.356Z,76.00
2018-03-19T05:53:09.265Z,75.90
2018-03-19T05:54:47.187Z,76.80
2018-03-19T05:56:26.013Z,77.00
2018-03-19T05:58:04.214Z,77.30
2018-03-19T05:59:42.745Z,77.70
2018-03-19T06:01:21.890Z,77.50
2018-03-19T06:03:00.865Z,77.80
2018-03-19T06:04:39.300Z,77.80
2018-03-19T06:06:18.611Z,77.30
2018-03-19T06:07:57.508Z,77.00
2018-03-19T06:09:36.763Z,76.60
2018-03-19T06:11:15.755Z,76.40
2018-03-19T06:12:55.903Z,76.10
2018-03-19T06:14:34.870Z,76.00
2018-03-19T06:16:13.952Z,74.10
2018-03-19T06:17:52.450Z,74.50
2018-03-19T06:19:30.645Z,76.30
2018-03-19T06:21:09.541Z,76.30
2018-03-19T06:22:47.808Z,76.30
2018-03-19T06:24:27.801Z,76.60
2018-03-19T06:26:06.654Z,76.60
2018-03-19T06:27:46.720Z,76.10
2018-03-19T06:29:25.359Z,75.90
2018-03-19T06:31:03.417Z,75.40
2018-03-19T06:32:42.218Z,75.80
2018-03-19T06:34:21.422Z,75.10
2018-03-19T06:36:00.241Z,76.60
2018-03-19T06:37:39.661Z,77.40
2018-03-19T06:39:19.589Z,76.90
2018-03-19T06:40:58.764Z,76.70
2018-03-19T06:42:37.924Z,76.70
2018-03-19T06:44:17.254Z,77.50
2018-03-19T06:45:56.588Z,76.80
2018-03-19T06:47:35.820Z,74.50
2018-03-19T06:49:15.784Z,71.90
2018-03-19T06:50:55.319Z,72.90
2018-03-19T06:52:34.716Z,73.20
2018-03-19T06:54:15.457Z,74.80
2018-03-19T06:55:54.114Z,74.80
2018-03-19T06:57:34.989Z,74.90
2018-03-19T06:59:13.573Z,73.30
2018-03-19T07:00:55.109Z,74.30
2018-03-19T07:02:34.032Z,74.90
2018-03-19T07:04:12.708Z,75.70
2018-03-19T07:05:51.738Z,76.40
2018-03-19T07:07:30.547Z,76.60
2018-03-19T07:09:09.303Z,77.00
2018-03-19T07:10:48.469Z,77.60
2018-03-19T07:12:28.312Z,74.90
2018-03-19T07:14:07.375Z,74.80
2018-03-19T07:15:46.613Z,75.90
2018-03-19T07:17:25.618Z,75.90
2018-03-19T07:19:05.419Z,74.90
2018-03-19T07:20:45.880Z,73.90
2018-03-19T07:22:26.222Z,74.20
2018-03-19T07:24:05.590Z,74.10
2018-03-19T07:25:45.364Z,70.70
2018-03-19T07:27:24.295Z,70.70
2018-03-19T07:29:02.628Z,70.30
2018-03-19T07:30:42.301Z,70.00
2018-03-19T07:32:21.230Z,70.00
2018-03-19T07:34:01.552Z,68.70
2018-03-19T07:35:39.328Z,66.90
2018-03-19T07:37:17.951Z,65.70
2018-03-19T07:38:57.775Z,66.60
2018-03-19T07:40:37.670Z,65.60
2018-03-19T07:42:16.862Z,65.80
2018-03-19T07:43:55.636Z,67.20
2018-03-19T07:45:35.887Z,66.60
2018-03-19T07:47:15.769Z,67.10
2018-03-19T07:48:54.705Z,67.00
2018-03-19T07:50:34.503Z,68.50
2018-03-19T07:52:12.655Z,68.30
2018-03-19T07:53:51.936Z,66.20
2018-03-19T07:55:31.013Z,65.00
2018-03-19T07:57:09.401Z,64.50
2018-03-19T07:58:51.898Z,64.90
2018-03-19T08:00:32.316Z,65.90
2018-03-19T08:02:10.887Z,66.80
2018-03-19T08:03:51.139Z,66.00
2018-03-19T08:05:30.378Z,64.40
2018-03-19T08:07:10.936Z,64.90
2018-03-19T08:10:44.829Z,66.60
2018-03-19T08:12:23.080Z,67.30
2018-03-19T08:14:01.270Z,68.70
2018-03-19T08:15:40.509Z,68.50
2018-03-19T08:17:18.861Z,69.30
2018-03-19T08:18:57.881Z,67.60
2018-03-19T08:20:36.235Z,68.80
2018-03-19T08:22:15.425Z,68.40
2018-03-19T08:23:54.472Z,69.60
2018-03-19T08:25:33.023Z,69.00
2018-03-19T08:27:11.939Z,68.60
2018-03-19T08:28:50.356Z,68.30
2018-03-19T08:30:29.234Z,68.20
2018-03-19T08:32:08.511Z,68.50
2018-03-19T08:33:47.108Z,68.40
2018-03-19T08:35:26.235Z,68.40
2018-03-19T08:37:04.431Z,68.10
2018-03-19T08:38:44.373Z,67.50
2018-03-19T08:40:22.695Z,67.60
2018-03-19T08:42:01.898Z,70.10
2018-03-19T08:43:42.164Z,70.00
2018-03-19T08:45:22.070Z,69.00
2018-03-19T08:47:01.013Z,67.80
2018-03-19T08:48:40.191Z,68.10
2018-03-19T08:50:20.098Z,68.00
2018-03-19T08:51:59.624Z,68.00
2018-03-19T08:53:38.144Z,67.20
2018-03-19T08:55:17.228Z,67.60
2018-03-19T08:56:55.667Z,67.60
2018-03-19T08:58:34.975Z,67.90
2018-03-19T09:00:15.789Z,68.30
2018-03-19T09:01:54.101Z,68.90
2018-03-19T09:03:33.035Z,68.60
2018-03-19T09:05:12.119Z,69.20
2018-03-19T09:06:50.266Z,70.00
2018-03-19T09:08:28.547Z,68.70
2018-03-19T09:10:07.494Z,69.00
2018-03-19T09:11:46.411Z,68.90
2018-03-19T09:13:25.615Z,67.50
2018-03-19T09:15:06.355Z,68.00
2018-03-19T09:16:45.849Z,68.00
2018-03-19T09:18:25.307Z,67.90
2018-03-19T09:20:04.023Z,67.60
2018-03-19T09:21:42.375Z,68.00
2018-03-19T09:23:21.207Z,67.10
2018-03-19T09:24:59.766Z,66.40
2018-03-19T09:26:41.881Z,66.20
2018-03-19T09:28:21.240Z,66.90
2018-03-19T09:30:01.539Z,68.60
2018-03-19T09:31:42.193Z,68.50
2018-03-19T09:33:20.400Z,67.90
2018-03-19T09:34:59.950Z,67.10
2018-03-19T09:36:40.356Z,66.70
2018-03-19T09:38:19.850Z,66.00
2018-03-19T09:39:58.594Z,66.00
2018-03-19T09:41:37.363Z,67.00
2018-03-19T09:43:15.959Z,67.20
2018-03-19T09:44:54.757Z,67.00
2018-03-19T09:46:33.958Z,67.70
2018-03-19T09:48:12.090Z,68.80
2018-03-19T09:49:50.835Z,68.90
2018-03-19T09:51:31.836Z,68.60
2018-03-19T09:53:11.070Z,67.70
2018-03-19T09:54:49.733Z,65.80
2018-03-19T09:56:27.921Z,66.60
2018-03-19T09:58:06.014Z,65.80
2018-03-19T09:59:43.860Z,66.70
2018-03-19T10:01:22.470Z,66.30
2018-03-19T10:02:59.812Z,66.70
2018-03-19T10:04:37.983Z,66.00
2018-03-19T10:06:15.895Z,66.00
2018-03-19T10:07:54.750Z,65.10
2018-03-19T10:09:33.847Z,64.10
2018-03-19T10:11:12.524Z,63.50
2018-03-19T10:12:51.112Z,62.90
2018-03-19T10:14:30.311Z,63.40
2018-03-19T10:16:09.121Z,63.40
2018-03-19T10:17:47.990Z,63.50
2018-03-19T10:19:27.847Z,62.10
2018-03-19T10:21:06.680Z,62.00
2018-03-19T10:22:45.487Z,63.60
2018-03-19T10:24:24.968Z,63.40
2018-03-19T10:26:02.550Z,63.20
2018-03-19T10:27:41.430Z,63.30
2018-03-19T10:29:20.253Z,64.20
2018-03-19T10:31:00.277Z,62.40
2018-03-19T10:32:39.475Z,62.30
2018-03-19T10:34:16.994Z,61.60
2018-03-19T10:35:56.402Z,62.00
2018-03-19T10:37:35.869Z,62.10
2018-03-19T10:39:14.135Z,59.50
2018-03-19T10:40:53.601Z,59.60
2018-03-19T10:42:31.120Z,59.60
2018-03-19T10:44:09.015Z,61.70
2018-03-19T10:45:47.839Z,62.80
2018-03-19T10:47:26.011Z,61.50
2018-03-19T10:49:04.636Z,62.00
2018-03-19T10:50:42.954Z,61.40
2018-03-19T10:52:21.598Z,61.30
2018-03-19T10:54:00.600Z,60.00
2018-03-19T10:55:40.352Z,60.50
2018-03-19T10:57:19.372Z,61.50
2018-03-19T10:58:57.553Z,60.30
2018-03-19T11:00:37.144Z,58.60
2018-03-19T11:02:17.966Z,59.80
2018-03-19T11:03:59.889Z,58.50
2018-03-19T11:05:45.424Z,58.40
2018-03-19T11:07:27.744Z,59.30
2018-03-19T11:09:12.286Z,61.00
2018-03-19T11:10:49.579Z,58.60
2018-03-19T11:12:28.333Z,58.60
2018-03-19T11:14:07.428Z,58.90
2018-03-19T11:15:47.294Z,58.70
2018-03-19T11:17:25.968Z,59.10
2018-03-19T11:19:04.246Z,59.90
2018-03-19T11:20:42.257Z,57.20
2018-03-19T11:22:20.881Z,57.10
2018-03-19T11:24:00.411Z,57.10
2018-03-19T11:25:38.681Z,57.10
2018-03-19T11:27:16.641Z,59.30
2018-03-19T11:28:55.742Z,58.00
2018-03-19T11:30:35.204Z,59.20
2018-03-19T11:32:14.066Z,56.90
2018-03-19T11:33:53.427Z,57.30
2018-03-19T11:35:34.159Z,57.60
2018-03-19T11:37:13.465Z,58.00
2018-03-19T11:38:52.582Z,57.50
2018-03-19T11:40:30.635Z,58.90
2018-03-19T11:42:09.335Z,58.80
2018-03-19T11:43:47.737Z,57.90
2018-03-19T11:45:26.870Z,58.30
2018-03-19T11:47:04.860Z,58.30
2018-03-19T11:48:43.811Z,58.70
2018-03-19T11:50:23.513Z,57.70
2018-03-19T11:52:01.760Z,57.50
2018-03-19T11:53:40.495Z,55.30
2018-03-19T11:55:18.027Z,55.60
2018-03-19T11:56:56.586Z,55.40
2018-03-19T11:58:35.508Z,55.50
2018-03-19T12:00:14.822Z,55.20
2018-03-19T12:01:54.729Z,56.30
2018-03-19T12:03:33.890Z,56.00
2018-03-19T12:05:12.212Z,55.70
2018-03-19T12:06:50.345Z,55.20
2018-03-19T12:08:31.190Z,56.80
2018-03-19T12:10:10.495Z,54.90
2018-03-19T12:11:48.330Z,55.00
2018-03-19T12:13:27.263Z,56.70
2018-03-19T12:15:07.051Z,54.80
2018-03-19T12:16:45.787Z,55.30
2018-03-19T12:18:24.887Z,56.70
2018-03-19T12:20:03.653Z,56.30
2018-03-19T12:21:43.427Z,56.60
2018-03-19T12:23:21.794Z,54.10
2018-03-19T12:24:59.917Z,53.70
2018-03-19T12:26:40.411Z,53.30
2018-03-19T12:28:18.501Z,53.30
2018-03-19T12:29:57.353Z,56.20
2018-03-19T12:31:36.856Z,56.90
2018-03-19T12:33:15.057Z,54.50
2018-03-19T12:34:53.858Z,55.20
2018-03-19T12:36:31.652Z,54.70
2018-03-19T12:38:10.404Z,54.80
2018-03-19T12:39:49.565Z,55.70
2018-03-19T12:41:27.534Z,54.80
2018-03-19T12:43:06.906Z,54.20
2018-03-19T12:44:45.745Z,56.30
2018-03-19T12:46:23.859Z,55.80
2018-03-19T12:48:02.591Z,55.80
2018-03-19T12:49:41.517Z,55.40
2018-03-19T12:51:20.105Z,54.30
2018-03-19T12:52:59.019Z,53.30
2018-03-19T12:54:38.588Z,53.40
2018-03-19T12:56:17.000Z,53.40
2018-03-19T12:57:56.424Z,52.80
2018-03-19T12:59:34.667Z,52.90
2018-03-19T13:01:14.074Z,53.80
2018-03-19T13:02:53.567Z,56.70
2018-03-19T13:04:32.943Z,53.70
2018-03-19T13:06:11.302Z,53.60
2018-03-19T13:07:56.084Z,53.00
2018-03-19T13:09:34.702Z,56.10
2018-03-19T13:11:13.037Z,55.90
2018-03-19T13:12:51.538Z,54.20
2018-03-19T13:14:29.684Z,53.80
2018-03-19T13:16:08.249Z,53.00
2018-03-19T13:17:47.088Z,54.40
2018-03-19T13:19:25.099Z,54.50
2018-03-19T13:21:03.570Z,53.10
2018-03-19T13:22:42.452Z,51.50
2018-03-19T13:24:21.945Z,54.20
2018-03-19T13:26:00.413Z,54.40
2018-03-19T13:27:38.390Z,52.80
2018-03-19T13:29:17.137Z,53.80
2018-03-19T13:30:57.311Z,53.50
2018-03-19T13:32:35.330Z,53.50
2018-03-19T13:34:13.208Z,54.90
2018-03-19T13:35:53.910Z,55.30
2018-03-19T13:37:32.782Z,53.20
2018-03-19T13:39:11.081Z,53.70
2018-03-19T13:40:49.548Z,52.60
2018-03-19T13:42:27.974Z,53.90
2018-03-19T13:44:06.881Z,52.30
2018-03-19T13:45:45.889Z,54.20
2018-03-19T13:47:23.351Z,52.90
2018-03-19T13:49:02.027Z,52.10
2018-03-19T13:50:43.830Z,53.50
2018-03-19T13:52:21.951Z,55.20
2018-03-19T13:54:01.231Z,53.80
2018-03-19T13:55:39.326Z,53.60
2018-03-19T13:57:18.338Z,52.90
2018-03-19T13:58:55.424Z,52.50
2018-03-19T14:00:34.253Z,52.60
2018-03-19T14:02:13.808Z,53.10
2018-03-19T14:03:52.593Z,52.50
2018-03-19T14:05:30.975Z,52.40
2018-03-19T14:07:10.167Z,50.80
2018-03-19T14:08:48.634Z,50.70
2018-03-19T14:10:27.447Z,51.70
2018-03-19T14:12:06.126Z,52.80
2018-03-19T14:13:44.740Z,54.00
2018-03-19T14:15:22.757Z,53.60
2018-03-19T14:17:02.117Z,52.80
2018-03-19T14:18:41.547Z,52.60
2018-03-19T14:20:22.137Z,53.00
2018-03-19T14:22:01.927Z,50.80
2018-03-19T14:23:41.258Z,50.80
2018-03-19T14:25:19.641Z,51.50
2018-03-19T14:26:58.852Z,53.30
2018-03-19T14:28:38.122Z,51.10
2018-03-19T14:30:19.649Z,51.10
2018-03-19T14:31:57.957Z,51.60
2018-03-19T14:33:37.241Z,53.10
2018-03-19T14:35:15.080Z,52.70
2018-03-19T14:36:53.381Z,51.60
2018-03-19T14:38:31.902Z,50.40
2018-03-19T14:40:10.098Z,49.60
2018-03-19T14:41:48.717Z,50.50
2018-03-19T14:43:27.595Z,52.40
2018-03-19T14:45:06.992Z,52.20
2018-03-19T14:46:46.537Z,53.20
2018-03-19T14:48:25.059Z,53.10
2018-03-19T14:50:04.451Z,51.50
2018-03-19T14:51:42.553Z,53.30
2018-03-19T14:53:20.033Z,53.60
2018-03-19T14:54:57.790Z,51.60
2018-03-19T14:56:35.936Z,53.80
2018-03-19T14:58:14.531Z,51.60
2018-03-19T14:59:51.818Z,51.60
2018-03-19T15:01:30.812Z,52.90
2018-03-19T15:03:10.324Z,53.20
2018-03-19T15:04:48.518Z,53.20
2018-03-19T15:06:27.525Z,53.30
2018-03-19T15:08:07.378Z,51.50
2018-03-19T15:09:45.795Z,51.60
2018-03-19T15:11:24.432Z,52.80
2018-03-19T15:13:04.061Z,52.80
2018-03-19T15:14:43.219Z,53.00
2018-03-19T15:16:23.192Z,52.00
2018-03-19T15:18:01.917Z,52.30
2018-03-19T15:19:40.575Z,52.00
2018-03-19T15:21:18.738Z,50.40
2018-03-19T15:22:58.778Z,52.30
2018-03-19T15:24:36.935Z,51.80
2018-03-19T15:26:14.824Z,51.30
2018-03-19T15:29:41.959Z,50.70
2018-03-19T15:31:21.474Z,50.70
2018-03-19T15:33:00.544Z,52.50
2018-03-19T15:34:40.339Z,50.80
2018-03-19T15:36:18.286Z,52.20
2018-03-19T15:37:56.895Z,52.40
2018-03-19T15:39:35.248Z,52.50
2018-03-19T15:41:13.436Z,52.70
2018-03-19T15:42:51.926Z,53.20
2018-03-19T15:44:30.053Z,53.30
2018-03-19T15:46:09.818Z,53.60
2018-03-19T15:47:49.550Z,52.20
2018-03-19T15:49:29.426Z,51.70
2018-03-19T15:51:07.739Z,51.60
2018-03-19T15:52:45.731Z,52.30
2018-03-19T15:54:24.016Z,51.20
2018-03-19T15:56:02.396Z,50.90
2018-03-19T15:57:40.321Z,50.40
2018-03-19T15:59:18.907Z,51.30
2018-03-19T16:00:57.401Z,52.00
2018-03-19T16:02:35.046Z,52.70
2018-03-19T16:04:13.302Z,52.30
2018-03-19T16:05:51.466Z,52.80
2018-03-19T16:07:30.343Z,52.40
2018-03-19T16:09:08.437Z,52.50
2018-03-19T16:10:47.336Z,53.40
2018-03-19T16:12:25.859Z,53.30
2018-03-19T16:14:05.150Z,54.10
2018-03-19T16:15:43.582Z,55.10
2018-03-19T16:17:21.032Z,55.60
2018-03-19T16:18:58.377Z,53.00
2018-03-19T16:20:37.432Z,53.00
2018-03-19T16:22:15.125Z,53.20
2018-03-19T16:23:53.199Z,53.80
2018-03-19T16:25:30.782Z,52.60
2018-03-19T16:27:09.540Z,52.40
2018-03-19T16:28:47.188Z,52.40
2018-03-19T16:30:27.692Z,52.20
2018-03-19T16:32:17.266Z,52.20
2018-03-19T16:33:55.827Z,53.50
2018-03-19T16:35:35.207Z,51.70
2018-03-19T16:37:13.109Z,51.70
2018-03-19T16:39:26.572Z,52.50
2018-03-19T16:41:04.840Z,51.90
2018-03-19T16:42:43.453Z,51.70
2018-03-19T16:44:21.918Z,51.80
2018-03-19T16:46:00.565Z,52.00
2018-03-19T16:47:38.958Z,52.70
2018-03-19T16:49:18.578Z,51.80
2018-03-19T16:50:56.042Z,52.10
2018-03-19T16:52:33.811Z,52.20
2018-03-19T16:54:11.156Z,52.60
2018-03-19T16:55:49.086Z,52.20
2018-03-19T16:57:26.949Z,52.60
2018-03-19T16:59:05.827Z,53.70
2018-03-19T17:00:44.730Z,53.50
2018-03-19T17:02:22.697Z,53.90
2018-03-19T17:04:01.081Z,53.10
2018-03-19T17:05:40.673Z,52.50
2018-03-19T17:07:19.145Z,52.30
2018-03-19T17:08:58.555Z,52.60
2018-03-19T17:10:37.209Z,52.60
2018-03-19T17:12:15.898Z,52.60
2018-03-19T17:13:54.590Z,53.20
2018-03-19T17:15:33.274Z,53.20
2018-03-19T17:17:11.869Z,53.60
2018-03-19T17:18:50.413Z,52.80
2018-03-19T17:20:29.409Z,52.20
2018-03-19T17:22:07.310Z,52.00
2018-03-19T17:23:46.056Z,52.80
2018-03-19T17:25:24.864Z,52.70
2018-03-19T17:27:03.738Z,52.80
2018-03-19T17:28:42.293Z,52.20
2018-03-19T17:30:20.909Z,51.60
2018-03-19T17:31:59.881Z,52.10
2018-03-19T17:33:38.286Z,52.50
2018-03-19T17:35:16.269Z,53.20
2018-03-19T17:36:56.102Z,53.50
2018-03-19T17:38:34.521Z,53.70
2018-03-19T17:40:13.755Z,51.30
2018-03-19T17:41:52.249Z,51.30
2018-03-19T17:43:30.751Z,51.80
2018-03-19T17:45:10.091Z,52.00
2018-03-19T17:46:54.422Z,52.30
2018-03-19T17:48:33.670Z,53.90
2018-03-19T17:50:12.286Z,52.70
2018-03-19T17:51:51.148Z,52.70
2018-03-19T17:53:30.380Z,53.80
2018-03-19T17:55:08.003Z,53.70
2018-03-19T17:56:46.603Z,51.90
2018-03-19T17:58:24.763Z,51.40
2018-03-19T18:00:05.028Z,52.00
2018-03-19T18:01:47.307Z,52.60
2018-03-19T18:03:24.863Z,52.50
2018-03-19T18:05:03.708Z,53.20
2018-03-19T18:06:42.287Z,52.70
2018-03-19T18:08:21.007Z,53.30
2018-03-19T18:09:59.250Z,52.20
2018-03-19T18:11:37.158Z,52.00
2018-03-19T18:13:15.503Z,51.70
2018-03-19T18:14:53.335Z,52.10
2018-03-19T18:16:31.464Z,52.60
2018-03-19T18:18:10.878Z,51.20
2018-03-19T18:19:49.515Z,51.10
2018-03-19T18:21:31.760Z,51.90
2018-03-19T18:23:09.785Z,52.40
2018-03-19T18:24:48.082Z,52.30
2018-03-19T18:26:25.902Z,52.30
2018-03-19T18:28:05.056Z,51.20
2018-03-19T18:29:43.668Z,52.10
2018-03-19T18:31:23.705Z,51.80
2018-03-19T18:33:02.365Z,52.50
2018-03-19T18:34:40.447Z,52.00
2018-03-19T18:36:18.641Z,52.40
2018-03-19T18:37:57.820Z,51.50
2018-03-19T18:39:36.514Z,50.10
2018-03-19T18:41:15.394Z,51.30
2018-03-19T18:42:54.485Z,53.00
2018-03-19T18:44:33.288Z,53.80
2018-03-19T18:46:12.943Z,52.90
2018-03-19T18:47:52.482Z,52.30
2018-03-19T18:49:31.076Z,52.30
2018-03-19T18:51:09.575Z,52.90
2018-03-19T18:52:47.630Z,53.30
2018-03-19T18:54:26.261Z,54.40
2018-03-19T18:56:05.075Z,54.70
2018-03-19T18:57:44.235Z,54.20
2018-03-19T18:59:22.761Z,54.60
2018-03-19T19:01:04.867Z,52.40
2018-03-19T19:02:43.316Z,52.00
2018-03-19T19:04:22.124Z,51.60
2018-03-19T19:06:01.274Z,53.30
2018-03-19T19:07:39.104Z,53.20
2018-03-19T19:09:17.088Z,51.90
2018-03-19T19:10:55.389Z,50.60
2018-03-19T19:12:33.697Z,51.00
2018-03-19T19:14:12.213Z,49.80
2018-03-19T19:15:50.557Z,49.60
2018-03-19T19:17:33.064Z,49.90
2018-03-19T19:19:11.482Z,49.90
2018-03-19T19:20:49.556Z,48.80
2018-03-19T19:22:27.695Z,49.60
2018-03-19T19:24:06.903Z,49.30
2018-03-19T19:25:45.720Z,49.90
2018-03-19T19:27:24.653Z,49.80
2018-03-19T19:29:03.542Z,51.50
2018-03-19T19:30:43.232Z,50.80
2018-03-19T19:32:23.022Z,48.00
2018-03-19T19:34:00.752Z,48.80
2018-03-19T19:35:40.948Z,48.50
2018-03-19T19:37:18.643Z,48.50
2018-03-19T19:38:57.272Z,48.60
2018-03-19T19:40:34.848Z,49.20
2018-03-19T19:42:12.891Z,48.10
2018-03-19T19:43:50.770Z,46.60
2018-03-19T19:45:28.537Z,46.40
2018-03-19T19:47:07.344Z,46.80
2018-03-19T19:48:45.627Z,44.60
2018-03-19T19:50:23.321Z,44.20
2018-03-19T19:52:02.819Z,44.70
2018-03-19T19:53:41.926Z,44.60
2018-03-19T19:55:20.535Z,44.60
2018-03-19T19:56:58.396Z,44.80
2018-03-19T19:58:36.535Z,44.80
2018-03-19T20:00:17.124Z,44.90
2018-03-19T20:01:54.762Z,45.40
2018-03-19T20:03:33.883Z,44.90
2018-03-19T20:05:11.874Z,44.80
2018-03-19T20:06:50.461Z,45.70
2018-03-19T20:08:28.772Z,45.60
2018-03-19T20:10:07.076Z,44.30
2018-03-19T20:11:45.734Z,43.40
2018-03-19T20:13:23.473Z,43.50
2018-03-19T20:15:03.339Z,41.50
2018-03-19T20:16:41.873Z,41.50
2018-03-19T20:18:20.353Z,41.60
2018-03-19T20:19:58.978Z,41.40
2018-03-19T20:21:37.261Z,40.60
2018-03-19T20:23:14.918Z,40.60
2018-03-19T20:24:53.195Z,40.50
2018-03-19T20:26:31.550Z,41.50
2018-03-19T20:28:09.867Z,41.80
2018-03-19T20:29:47.918Z,42.90
2018-03-19T20:31:25.168Z,43.00
2018-03-19T20:33:03.487Z,42.20
2018-03-19T20:34:41.531Z,41.50
2018-03-19T20:36:20.608Z,41.40
2018-03-19T20:37:58.921Z,42.00
2018-03-19T20:39:36.616Z,41.10
2018-03-19T20:41:16.057Z,39.70
2018-03-19T20:42:55.634Z,39.70
2018-03-19T20:44:34.760Z,39.90
2018-03-19T20:46:12.615Z,40.70
2018-03-19T20:47:50.558Z,40.60
2018-03-19T20:49:29.112Z,40.50
2018-03-19T20:51:07.164Z,40.10
2018-03-19T20:52:45.713Z,39.50
2018-03-19T20:54:24.300Z,39.70
2018-03-19T20:56:05.270Z,40.80
2018-03-19T20:57:43.795Z,40.10
2018-03-19T20:59:21.755Z,40.90
2018-03-19T21:00:59.631Z,41.30
2018-03-19T21:02:39.196Z,40.20
2018-03-19T21:04:16.485Z,39.70
2018-03-19T21:05:54.955Z,40.20
2018-03-19T21:07:32.739Z,39.80
2018-03-19T21:09:10.508Z,40.80
2018-03-19T21:10:49.086Z,41.30
2018-03-19T21:12:27.237Z,41.20
2018-03-19T21:14:06.547Z,41.30
2018-03-19T21:15:45.349Z,41.60
2018-03-19T21:17:24.236Z,41.30